sensor_id;sensor_type;location;lat;lon;timestamp;P1;durP1;ratioP1;P2;durP2;ratioP2
22675;SDS011;12521;43.310;21.876;2023-06-19T00:00:15;10.0;;;6.0;;
22675;SDS011;12521;43.310;21.876;2023-06-19T00:04:52;9.0;;;6.0;;
22675;SDS011;12521;43.310;21.876;2023-06-19T00:09:28;9.0;;;6.0;;
22675;SDS011;12521;43.310;21.876;2023-06-19T00:14:05;8.0;;;6.0;;
22675;SDS011;12521;43.310;21.876;2023-06-19T00:18:42;8.0;;;6.0;;
22675;SDS011;12521;43.310;21.876;2023-06-19T00:23:19;8.0;;;6.0;;
22675;SDS011;12521;43.310;21.876;2023-06-19T00:27:56;8.0;;;7.0;;
22675;SDS011;12521;43.310;21.876;2023-06-19T00:32:32;8.0;;;7.0;;
22675;SDS011;12521;43.310;21.876;2023-06-19T00:37:10;8.0;;;8.0;;
22675;SDS011;12521;43.310;21.876;2023-06-19T00:41:47;8.0;;;8.0;;
22675;SDS011;12521;43.310;21.876;2023-06-19T00:46:29;8.0;;;8.0;;
22675;SDS011;12521;43.310;21.876;2023-06-19T00:51:07;8.0;;;8.0;;
22675;SDS011;12521;43.310;21.876;2023-06-19T00:55:48;8.0;;;8.0;;
22675;SDS011;12521;43.310;21.876;2023-06-19T01:00:28;8.0;;;8.0;;
22675;SDS011;12521;43.310;21.876;2023-06-19T01:05:06;8.0;;;7.0;;
22675;SDS011;12521;43.310;21.876;2023-06-19T01:10:08;8.0;;;7.0;;
22675;SDS011;12521;43.310;21.876;2023-06-19T01:15:03;8.0;;;7.0;;
22675;SDS011;12521;43.310;21.876;2023-06-19T01:19:44;8.0;;;7.0;;
22675;SDS011;12521;43.310;21.876;2023-06-19T01:38:24;8.0;;;8.0;;
22675;SDS011;12521;43.310;21.876;2023-06-19T01:43:07;8.0;;;8.0;;
22675;SDS011;12521;43.310;21.876;2023-06-19T01:47:46;8.0;;;8.0;;
22675;SDS011;12521;43.310;21.876;2023-06-19T01:52:25;8.0;;;8.0;;
22675;SDS011;12521;43.310;21.876;2023-06-19T01:57:03;8.0;;;8.0;;
22675;SDS011;12521;43.310;21.876;2023-06-19T02:01:41;8.0;;;8.0;;
22675;SDS011;12521;43.310;21.876;2023-06-19T02:06:17;8.0;;;7.0;;
22675;SDS011;12521;43.310;21.876;2023-06-19T02:10:54;8.0;;;7.0;;
22675;SDS011;12521;43.310;21.876;2023-06-19T02:15:31;8.0;;;7.0;;
22675;SDS011;12521;43.310;21.876;2023-06-19T02:20:11;8.0;;;7.0;;
22675;SDS011;12521;43.310;21.876;2023-06-19T02:24:48;9.0;;;7.0;;
22675;SDS011;12521;43.310;21.876;2023-06-19T02:29:25;9.0;;;7.0;;
22675;SDS011;12521;43.310;21.876;2023-06-19T02:34:02;9.0;;;7.0;;
22675;SDS011;12521;43.310;21.876;2023-06-19T02:38:38;8.0;;;6.0;;
22675;SDS011;12521;43.310;21.876;2023-06-19T02:43:14;8.0;;;6.0;;
22675;SDS011;12521;43.310;21.876;2023-06-19T02:47:51;8.0;;;6.0;;
22675;SDS011;12521;43.310;21.876;2023-06-19T02:52:29;8.0;;;6.0;;
22675;SDS011;12521;43.310;21.876;2023-06-19T02:57:07;8.0;;;6.0;;
22675;SDS011;12521;43.310;21.876;2023-06-19T03:01:43;8.0;;;6.0;;
22675;SDS011;12521;43.310;21.876;2023-06-19T03:06:20;9.0;;;7.0;;
22675;SDS011;12521;43.310;21.876;2023-06-19T03:10:56;9.0;;;7.0;;
22675;SDS011;12521;43.310;21.876;2023-06-19T03:15:33;8.0;;;6.0;;
22675;SDS011;12521;43.310;21.876;2023-06-19T03:20:11;8.0;;;6.0;;
22675;SDS011;12521;43.310;21.876;2023-06-19T03:24:48;8.0;;;6.0;;
22675;SDS011;12521;43.310;21.876;2023-06-19T03:29:24;8.0;;;6.0;;
22675;SDS011;12521;43.310;21.876;2023-06-19T03:34:01;8.0;;;6.0;;
22675;SDS011;12521;43.310;21.876;2023-06-19T03:38:37;10.0;;;6.0;;
22675;SDS011;12521;43.310;21.876;2023-06-19T03:43:14;10.0;;;6.0;;
22675;SDS011;12521;43.310;21.876;2023-06-19T03:47:51;13.0;;;7.0;;
22675;SDS011;12521;43.310;21.876;2023-06-19T03:52:27;13.0;;;7.0;;
22675;SDS011;12521;43.310;21.876;2023-06-19T03:57:06;11.0;;;7.0;;
22675;SDS011;12521;43.310;21.876;2023-06-19T04:01:42;11.0;;;7.0;;
22675;SDS011;12521;43.310;21.876;2023-06-19T04:06:19;9.0;;;7.0;;
22675;SDS011;12521;43.310;21.876;2023-06-19T04:10:56;9.0;;;7.0;;
22675;SDS011;12521;43.310;21.876;2023-06-19T04:15:33;10.0;;;8.0;;
22675;SDS011;12521;43.310;21.876;2023-06-19T04:20:11;10.0;;;8.0;;
22675;SDS011;12521;43.310;21.876;2023-06-19T04:24:48;11.0;;;9.0;;
22675;SDS011;12521;43.310;21.876;2023-06-19T04:29:25;11.0;;;9.0;;
22675;SDS011;12521;43.310;21.876;2023-06-19T04:34:02;11.0;;;9.0;;
22675;SDS011;12521;43.310;21.876;2023-06-19T04:38:39;12.0;;;8.0;;
22675;SDS011;12521;43.310;21.876;2023-06-19T04:43:16;12.0;;;8.0;;
22675;SDS011;12521;43.310;21.876;2023-06-19T04:47:52;13.0;;;8.0;;
22675;SDS011;12521;43.310;21.876;2023-06-19T04:52:29;13.0;;;8.0;;
22675;SDS011;12521;43.310;21.876;2023-06-19T04:57:07;12.0;;;8.0;;
22675;SDS011;12521;43.310;21.876;2023-06-19T05:01:44;12.0;;;8.0;;
22675;SDS011;12521;43.310;21.876;2023-06-19T05:06:20;11.0;;;8.0;;
22675;SDS011;12521;43.310;21.876;2023-06-19T05:10:57;11.0;;;8.0;;
22675;SDS011;12521;43.310;21.876;2023-06-19T05:15:34;10.0;;;8.0;;
22675;SDS011;12521;43.310;21.876;2023-06-19T05:20:12;10.0;;;8.0;;
22675;SDS011;12521;43.310;21.876;2023-06-19T05:24:49;9.0;;;8.0;;
22675;SDS011;12521;43.310;21.876;2023-06-19T05:29:25;9.0;;;8.0;;
22675;SDS011;12521;43.310;21.876;2023-06-19T05:34:02;9.0;;;8.0;;
22675;SDS011;12521;43.310;21.876;2023-06-19T05:38:38;10.0;;;8.0;;
22675;SDS011;12521;43.310;21.876;2023-06-19T05:43:15;10.0;;;8.0;;
22675;SDS011;12521;43.310;21.876;2023-06-19T05:47:51;10.0;;;9.0;;
22675;SDS011;12521;43.310;21.876;2023-06-19T05:52:28;10.0;;;9.0;;
22675;SDS011;12521;43.310;21.876;2023-06-19T05:57:06;12.0;;;10.0;;
22675;SDS011;12521;43.310;21.876;2023-06-19T06:01:43;12.0;;;10.0;;
22675;SDS011;12521;43.310;21.876;2023-06-19T06:06:20;13.0;;;10.0;;
22675;SDS011;12521;43.310;21.876;2023-06-19T06:10:58;13.0;;;10.0;;
22675;SDS011;12521;43.310;21.876;2023-06-19T06:15:34;13.0;;;9.0;;
22675;SDS011;12521;43.310;21.876;2023-06-19T06:20:11;13.0;;;9.0;;
22675;SDS011;12521;43.310;21.876;2023-06-19T06:24:48;13.0;;;8.0;;
22675;SDS011;12521;43.310;21.876;2023-06-19T06:29:24;13.0;;;8.0;;
22675;SDS011;12521;43.310;21.876;2023-06-19T06:34:01;13.0;;;8.0;;
22675;SDS011;12521;43.310;21.876;2023-06-19T06:38:37;12.0;;;8.0;;
22675;SDS011;12521;43.310;21.876;2023-06-19T06:43:14;12.0;;;8.0;;
22675;SDS011;12521;43.310;21.876;2023-06-19T06:47:50;11.0;;;9.0;;
22675;SDS011;12521;43.310;21.876;2023-06-19T06:52:27;11.0;;;9.0;;
22675;SDS011;12521;43.310;21.876;2023-06-19T06:57:05;12.0;;;9.0;;
22675;SDS011;12521;43.310;21.876;2023-06-19T07:01:42;12.0;;;9.0;;
22675;SDS011;12521;43.310;21.876;2023-06-19T07:06:18;12.0;;;9.0;;
22675;SDS011;12521;43.310;21.876;2023-06-19T07:10:55;12.0;;;9.0;;
22675;SDS011;12521;43.310;21.876;2023-06-19T07:15:32;11.0;;;9.0;;
22675;SDS011;12521;43.310;21.876;2023-06-19T07:20:11;11.0;;;9.0;;
22675;SDS011;12521;43.310;21.876;2023-06-19T07:24:49;10.0;;;9.0;;
22675;SDS011;12521;43.310;21.876;2023-06-19T07:29:26;10.0;;;9.0;;
22675;SDS011;12521;43.310;21.876;2023-06-19T07:34:02;10.0;;;9.0;;
22675;SDS011;12521;43.310;21.876;2023-06-19T07:38:39;13.0;;;10.0;;
22675;SDS011;12521;43.310;21.876;2023-06-19T07:43:16;13.0;;;10.0;;
22675;SDS011;12521;43.310;21.876;2023-06-19T07:47:57;16.0;;;11.0;;
22675;SDS011;12521;43.310;21.876;2023-06-19T07:52:33;16.0;;;11.0;;
22675;SDS011;12521;43.310;21.876;2023-06-19T07:57:10;13.0;;;10.0;;
22675;SDS011;12521;43.310;21.876;2023-06-19T08:01:46;13.0;;;10.0;;
22675;SDS011;12521;43.310;21.876;2023-06-19T08:06:23;10.0;;;9.0;;
22675;SDS011;12521;43.310;21.876;2023-06-19T08:10:59;10.0;;;9.0;;
22675;SDS011;12521;43.310;21.876;2023-06-19T08:15:35;10.0;;;8.0;;
22675;SDS011;12521;43.310;21.876;2023-06-19T08:20:13;10.0;;;8.0;;
22675;SDS011;12521;43.310;21.876;2023-06-19T08:24:49;11.0;;;8.0;;
22675;SDS011;12521;43.310;21.876;2023-06-19T08:29:26;11.0;;;8.0;;
22675;SDS011;12521;43.310;21.876;2023-06-19T08:34:03;11.0;;;8.0;;
22675;SDS011;12521;43.310;21.876;2023-06-19T08:38:40;10.0;;;8.0;;
22675;SDS011;12521;43.310;21.876;2023-06-19T08:43:17;10.0;;;8.0;;
22675;SDS011;12521;43.310;21.876;2023-06-19T08:47:59;9.0;;;8.0;;
22675;SDS011;12521;43.310;21.876;2023-06-19T08:52:38;9.0;;;8.0;;
22675;SDS011;12521;43.310;21.876;2023-06-19T08:57:15;8.0;;;8.0;;
22675;SDS011;12521;43.310;21.876;2023-06-19T09:01:55;8.0;;;8.0;;
22675;SDS011;12521;43.310;21.876;2023-06-19T09:06:32;8.0;;;8.0;;
22675;SDS011;12521;43.310;21.876;2023-06-19T09:11:08;8.0;;;8.0;;
22675;SDS011;12521;43.310;21.876;2023-06-19T09:15:45;8.0;;;8.0;;
22675;SDS011;12521;43.310;21.876;2023-06-19T09:20:27;8.0;;;8.0;;
22675;SDS011;12521;43.310;21.876;2023-06-19T09:25:08;9.0;;;8.0;;
22675;SDS011;12521;43.310;21.876;2023-06-19T09:29:50;9.0;;;8.0;;
22675;SDS011;12521;43.310;21.876;2023-06-19T09:34:27;9.0;;;8.0;;
22675;SDS011;12521;43.310;21.876;2023-06-19T09:39:04;8.0;;;8.0;;
22675;SDS011;12521;43.310;21.876;2023-06-19T09:43:47;8.0;;;8.0;;
22675;SDS011;12521;43.310;21.876;2023-06-19T09:48:33;8.0;;;7.0;;
22675;SDS011;12521;43.310;21.876;2023-06-19T09:53:19;8.0;;;7.0;;
22675;SDS011;12521;43.310;21.876;2023-06-19T09:58:03;12.0;;;8.0;;
22675;SDS011;12521;43.310;21.876;2023-06-19T10:02:47;12.0;;;8.0;;
22675;SDS011;12521;43.310;21.876;2023-06-19T10:07:35;16.0;;;10.0;;
22675;SDS011;12521;43.310;21.876;2023-06-19T10:12:12;16.0;;;10.0;;
22675;SDS011;12521;43.310;21.876;2023-06-19T10:16:49;12.0;;;8.0;;
22675;SDS011;12521;43.310;21.876;2023-06-19T10:21:26;12.0;;;8.0;;
22675;SDS011;12521;43.310;21.876;2023-06-19T10:26:02;8.0;;;7.0;;
22675;SDS011;12521;43.310;21.876;2023-06-19T10:30:39;8.0;;;7.0;;
22675;SDS011;12521;43.310;21.876;2023-06-19T10:35:18;8.0;;;7.0;;
22675;SDS011;12521;43.310;21.876;2023-06-19T10:39:55;8.0;;;7.0;;
22675;SDS011;12521;43.310;21.876;2023-06-19T10:44:31;8.0;;;7.0;;
22675;SDS011;12521;43.310;21.876;2023-06-19T10:49:10;9.0;;;7.0;;
22675;SDS011;12521;43.310;21.876;2023-06-19T10:53:47;9.0;;;7.0;;
22675;SDS011;12521;43.310;21.876;2023-06-19T10:58:24;8.0;;;6.0;;
22675;SDS011;12521;43.310;21.876;2023-06-19T11:03:01;8.0;;;6.0;;
22675;SDS011;12521;43.310;21.876;2023-06-19T11:07:38;7.0;;;6.0;;
22675;SDS011;12521;43.310;21.876;2023-06-19T11:12:21;7.0;;;6.0;;
22675;SDS011;12521;43.310;21.876;2023-06-19T11:16:58;9.0;;;6.0;;
22675;SDS011;12521;43.310;21.876;2023-06-19T11:21:37;9.0;;;6.0;;
22675;SDS011;12521;43.310;21.876;2023-06-19T11:26:14;11.0;;;6.0;;
22675;SDS011;12521;43.310;21.876;2023-06-19T11:31:02;11.0;;;6.0;;
22675;SDS011;12521;43.310;21.876;2023-06-19T11:35:39;12.0;;;8.0;;
22675;SDS011;12521;43.310;21.876;2023-06-19T11:40:16;12.0;;;8.0;;
22675;SDS011;12521;43.310;21.876;2023-06-19T11:44:55;12.0;;;11.0;;
22675;SDS011;12521;43.310;21.876;2023-06-19T11:49:36;12.0;;;11.0;;
22675;SDS011;12521;43.310;21.876;2023-06-19T11:54:14;12.0;;;11.0;;
22675;SDS011;12521;43.310;21.876;2023-06-19T11:58:51;14.0;;;10.0;;
22675;SDS011;12521;43.310;21.876;2023-06-19T12:03:28;14.0;;;10.0;;
22675;SDS011;12521;43.310;21.876;2023-06-19T12:08:06;15.0;;;10.0;;
22675;SDS011;12521;43.310;21.876;2023-06-19T12:12:42;15.0;;;10.0;;
22675;SDS011;12521;43.310;21.876;2023-06-19T12:17:18;14.0;;;10.0;;
22675;SDS011;12521;43.310;21.876;2023-06-19T12:21:55;14.0;;;10.0;;
22675;SDS011;12521;43.310;21.876;2023-06-19T12:26:34;13.0;;;11.0;;
22675;SDS011;12521;43.310;21.876;2023-06-19T12:31:12;13.0;;;11.0;;
22675;SDS011;12521;43.310;21.876;2023-06-19T12:35:50;15.0;;;10.0;;
22675;SDS011;12521;43.310;21.876;2023-06-19T12:40:27;15.0;;;10.0;;
22675;SDS011;12521;43.310;21.876;2023-06-19T12:45:06;17.0;;;10.0;;
22675;SDS011;12521;43.310;21.876;2023-06-19T12:49:46;17.0;;;10.0;;
22675;SDS011;12521;43.310;21.876;2023-06-19T12:54:23;17.0;;;10.0;;
22675;SDS011;12521;43.310;21.876;2023-06-19T12:59:00;16.0;;;10.0;;
22675;SDS011;12521;43.310;21.876;2023-06-19T13:03:36;16.0;;;10.0;;
22675;SDS011;12521;43.310;21.876;2023-06-19T13:08:13;14.0;;;9.0;;
22675;SDS011;12521;43.310;21.876;2023-06-19T13:12:51;14.0;;;9.0;;
22675;SDS011;12521;43.310;21.876;2023-06-19T13:17:28;11.0;;;8.0;;
22675;SDS011;12521;43.310;21.876;2023-06-19T13:22:04;11.0;;;8.0;;
22675;SDS011;12521;43.310;21.876;2023-06-19T13:26:41;8.0;;;6.0;;
22675;SDS011;12521;43.310;21.876;2023-06-19T13:31:17;8.0;;;6.0;;
22675;SDS011;12521;43.310;21.876;2023-06-19T13:35:54;8.0;;;6.0;;
22675;SDS011;12521;43.310;21.876;2023-06-19T13:40:30;8.0;;;6.0;;
22675;SDS011;12521;43.310;21.876;2023-06-19T13:45:09;9.0;;;7.0;;
22675;SDS011;12521;43.310;21.876;2023-06-19T13:49:47;9.0;;;7.0;;
22675;SDS011;12521;43.310;21.876;2023-06-19T13:54:23;9.0;;;7.0;;
22675;SDS011;12521;43.310;21.876;2023-06-19T13:59:00;8.0;;;7.0;;
22675;SDS011;12521;43.310;21.876;2023-06-19T14:03:38;8.0;;;7.0;;
22675;SDS011;12521;43.310;21.876;2023-06-19T14:08:15;8.0;;;7.0;;
22675;SDS011;12521;43.310;21.876;2023-06-19T14:12:52;8.0;;;7.0;;
22675;SDS011;12521;43.310;21.876;2023-06-19T14:17:29;8.0;;;8.0;;
22675;SDS011;12521;43.310;21.876;2023-06-19T14:22:06;8.0;;;8.0;;
22675;SDS011;12521;43.310;21.876;2023-06-19T14:26:42;8.0;;;8.0;;
22675;SDS011;12521;43.310;21.876;2023-06-19T14:31:18;8.0;;;8.0;;
22675;SDS011;12521;43.310;21.876;2023-06-19T14:35:54;8.0;;;8.0;;
22675;SDS011;12521;43.310;21.876;2023-06-19T14:40:31;8.0;;;8.0;;
22675;SDS011;12521;43.310;21.876;2023-06-19T14:45:10;9.0;;;8.0;;
22675;SDS011;12521;43.310;21.876;2023-06-19T14:49:47;9.0;;;8.0;;
22675;SDS011;12521;43.310;21.876;2023-06-19T14:54:23;9.0;;;8.0;;
22675;SDS011;12521;43.310;21.876;2023-06-19T14:59:00;8.0;;;8.0;;
22675;SDS011;12521;43.310;21.876;2023-06-19T15:03:37;8.0;;;8.0;;
22675;SDS011;12521;43.310;21.876;2023-06-19T15:08:14;8.0;;;8.0;;
22675;SDS011;12521;43.310;21.876;2023-06-19T15:12:50;8.0;;;8.0;;
22675;SDS011;12521;43.310;21.876;2023-06-19T15:17:27;9.0;;;8.0;;
22675;SDS011;12521;43.310;21.876;2023-06-19T15:22:06;9.0;;;8.0;;
22675;SDS011;12521;43.310;21.876;2023-06-19T15:26:42;10.0;;;8.0;;
22675;SDS011;12521;43.310;21.876;2023-06-19T15:31:23;10.0;;;8.0;;
22675;SDS011;12521;43.310;21.876;2023-06-19T15:36:03;10.0;;;8.0;;
22675;SDS011;12521;43.310;21.876;2023-06-19T15:40:40;10.0;;;8.0;;
22675;SDS011;12521;43.310;21.876;2023-06-19T15:45:17;10.0;;;8.0;;
22675;SDS011;12521;43.310;21.876;2023-06-19T15:49:54;10.0;;;8.0;;
22675;SDS011;12521;43.310;21.876;2023-06-19T15:54:30;10.0;;;8.0;;
22675;SDS011;12521;43.310;21.876;2023-06-19T15:59:07;10.0;;;8.0;;
22675;SDS011;12521;43.310;21.876;2023-06-19T16:03:43;10.0;;;8.0;;
22675;SDS011;12521;43.310;21.876;2023-06-19T16:08:22;11.0;;;8.0;;
22675;SDS011;12521;43.310;21.876;2023-06-19T16:12:58;11.0;;;8.0;;
22675;SDS011;12521;43.310;21.876;2023-06-19T16:17:35;10.0;;;8.0;;
22675;SDS011;12521;43.310;21.876;2023-06-19T16:22:11;10.0;;;8.0;;
22675;SDS011;12521;43.310;21.876;2023-06-19T16:26:48;9.0;;;8.0;;
22675;SDS011;12521;43.310;21.876;2023-06-19T16:31:24;9.0;;;8.0;;
22675;SDS011;12521;43.310;21.876;2023-06-19T16:36:01;8.0;;;8.0;;
22675;SDS011;12521;43.310;21.876;2023-06-19T16:40:37;8.0;;;8.0;;
22675;SDS011;12521;43.310;21.876;2023-06-19T16:45:14;8.0;;;7.0;;
22675;SDS011;12521;43.310;21.876;2023-06-19T16:49:51;8.0;;;7.0;;
22675;SDS011;12521;43.310;21.876;2023-06-19T16:54:27;8.0;;;7.0;;
22675;SDS011;12521;43.310;21.876;2023-06-19T16:59:04;9.0;;;8.0;;
22675;SDS011;12521;43.310;21.876;2023-06-19T17:03:40;9.0;;;8.0;;
22675;SDS011;12521;43.310;21.876;2023-06-19T17:08:17;10.0;;;8.0;;
22675;SDS011;12521;43.310;21.876;2023-06-19T17:12:53;10.0;;;8.0;;
22675;SDS011;12521;43.310;21.876;2023-06-19T17:17:29;11.0;;;8.0;;
22675;SDS011;12521;43.310;21.876;2023-06-19T17:22:05;11.0;;;8.0;;
22675;SDS011;12521;43.310;21.876;2023-06-19T17:26:42;12.0;;;7.0;;
22675;SDS011;12521;43.310;21.876;2023-06-19T17:31:18;12.0;;;7.0;;
22675;SDS011;12521;43.310;21.876;2023-06-19T17:35:55;12.0;;;8.0;;
22675;SDS011;12521;43.310;21.876;2023-06-19T17:40:31;12.0;;;8.0;;
22675;SDS011;12521;43.310;21.876;2023-06-19T17:45:10;13.0;;;10.0;;
22675;SDS011;12521;43.310;21.876;2023-06-19T17:49:47;13.0;;;10.0;;
22675;SDS011;12521;43.310;21.876;2023-06-19T17:54:23;13.0;;;10.0;;
22675;SDS011;12521;43.310;21.876;2023-06-19T17:59:00;11.0;;;9.0;;
22675;SDS011;12521;43.310;21.876;2023-06-19T18:03:37;11.0;;;9.0;;
22675;SDS011;12521;43.310;21.876;2023-06-19T18:08:14;9.0;;;8.0;;
22675;SDS011;12521;43.310;21.876;2023-06-19T18:12:51;9.0;;;8.0;;
22675;SDS011;12521;43.310;21.876;2023-06-19T18:17:27;10.0;;;8.0;;
22675;SDS011;12521;43.310;21.876;2023-06-19T18:22:05;10.0;;;8.0;;
22675;SDS011;12521;43.310;21.876;2023-06-19T18:26:41;10.0;;;8.0;;
22675;SDS011;12521;43.310;21.876;2023-06-19T18:31:17;10.0;;;8.0;;
22675;SDS011;12521;43.310;21.876;2023-06-19T18:35:53;12.0;;;10.0;;
22675;SDS011;12521;43.310;21.876;2023-06-19T18:40:30;12.0;;;10.0;;
22675;SDS011;12521;43.310;21.876;2023-06-19T18:45:09;13.0;;;11.0;;
22675;SDS011;12521;43.310;21.876;2023-06-19T18:49:46;13.0;;;11.0;;
22675;SDS011;12521;43.310;21.876;2023-06-19T18:54:22;13.0;;;11.0;;
22675;SDS011;12521;43.310;21.876;2023-06-19T18:58:59;15.0;;;10.0;;
22675;SDS011;12521;43.310;21.876;2023-06-19T19:03:35;15.0;;;10.0;;
22675;SDS011;12521;43.310;21.876;2023-06-19T19:08:12;17.0;;;9.0;;
22675;SDS011;12521;43.310;21.876;2023-06-19T19:12:48;17.0;;;9.0;;
22675;SDS011;12521;43.310;21.876;2023-06-19T19:17:25;15.0;;;10.0;;
22675;SDS011;12521;43.310;21.876;2023-06-19T19:22:01;15.0;;;10.0;;
22675;SDS011;12521;43.310;21.876;2023-06-19T19:26:38;13.0;;;10.0;;
22675;SDS011;12521;43.310;21.876;2023-06-19T19:31:18;13.0;;;10.0;;
22675;SDS011;12521;43.310;21.876;2023-06-19T19:35:55;14.0;;;10.0;;
22675;SDS011;12521;43.310;21.876;2023-06-19T19:40:32;14.0;;;10.0;;
22675;SDS011;12521;43.310;21.876;2023-06-19T19:45:10;14.0;;;10.0;;
22675;SDS011;12521;43.310;21.876;2023-06-19T19:49:46;14.0;;;10.0;;
22675;SDS011;12521;43.310;21.876;2023-06-19T19:54:22;14.0;;;10.0;;
22675;SDS011;12521;43.310;21.876;2023-06-19T19:58:58;15.0;;;11.0;;
22675;SDS011;12521;43.310;21.876;2023-06-19T20:03:34;15.0;;;11.0;;
22675;SDS011;12521;43.310;21.876;2023-06-19T20:08:11;16.0;;;12.0;;
22675;SDS011;12521;43.310;21.876;2023-06-19T20:12:47;16.0;;;12.0;;
22675;SDS011;12521;43.310;21.876;2023-06-19T20:17:24;15.0;;;12.0;;
22675;SDS011;12521;43.310;21.876;2023-06-19T20:22:00;15.0;;;12.0;;
22675;SDS011;12521;43.310;21.876;2023-06-19T20:26:37;14.0;;;12.0;;
22675;SDS011;12521;43.310;21.876;2023-06-19T20:31:13;14.0;;;12.0;;
22675;SDS011;12521;43.310;21.876;2023-06-19T20:35:51;13.0;;;12.0;;
22675;SDS011;12521;43.310;21.876;2023-06-19T20:40:28;13.0;;;12.0;;
22675;SDS011;12521;43.310;21.876;2023-06-19T20:45:07;12.0;;;11.0;;
22675;SDS011;12521;43.310;21.876;2023-06-19T20:49:47;12.0;;;11.0;;
22675;SDS011;12521;43.310;21.876;2023-06-19T20:54:23;12.0;;;11.0;;
22675;SDS011;12521;43.310;21.876;2023-06-19T20:59:00;14.0;;;12.0;;
22675;SDS011;12521;43.310;21.876;2023-06-19T21:03:37;14.0;;;12.0;;
22675;SDS011;12521;43.310;21.876;2023-06-19T21:08:13;15.0;;;12.0;;
22675;SDS011;12521;43.310;21.876;2023-06-19T21:12:50;15.0;;;12.0;;
22675;SDS011;12521;43.310;21.876;2023-06-19T21:17:26;14.0;;;12.0;;
22675;SDS011;12521;43.310;21.876;2023-06-19T21:22:04;14.0;;;12.0;;
22675;SDS011;12521;43.310;21.876;2023-06-19T21:26:40;14.0;;;11.0;;
22675;SDS011;12521;43.310;21.876;2023-06-19T21:31:17;14.0;;;11.0;;
22675;SDS011;12521;43.310;21.876;2023-06-19T21:35:54;14.0;;;11.0;;
22675;SDS011;12521;43.310;21.876;2023-06-19T21:40:30;14.0;;;11.0;;
22675;SDS011;12521;43.310;21.876;2023-06-19T21:45:07;15.0;;;11.0;;
22675;SDS011;12521;43.310;21.876;2023-06-19T21:49:45;15.0;;;11.0;;
22675;SDS011;12521;43.310;21.876;2023-06-19T21:54:21;15.0;;;11.0;;
22675;SDS011;12521;43.310;21.876;2023-06-19T21:58:58;14.0;;;10.0;;
22675;SDS011;12521;43.310;21.876;2023-06-19T22:03:35;14.0;;;10.0;;
22675;SDS011;12521;43.310;21.876;2023-06-19T22:08:11;12.0;;;10.0;;
22675;SDS011;12521;43.310;21.876;2023-06-19T22:12:48;12.0;;;10.0;;
22675;SDS011;12521;43.310;21.876;2023-06-19T22:17:25;12.0;;;10.0;;
22675;SDS011;12521;43.310;21.876;2023-06-19T22:22:01;12.0;;;10.0;;
22675;SDS011;12521;43.310;21.876;2023-06-19T22:26:37;11.0;;;11.0;;
22675;SDS011;12521;43.310;21.876;2023-06-19T22:31:13;11.0;;;11.0;;
22675;SDS011;12521;43.310;21.876;2023-06-19T22:35:50;12.0;;;11.0;;
22675;SDS011;12521;43.310;21.876;2023-06-19T22:40:26;12.0;;;11.0;;
22675;SDS011;12521;43.310;21.876;2023-06-19T22:45:04;12.0;;;11.0;;
22675;SDS011;12521;43.310;21.876;2023-06-19T22:49:45;14.0;;;11.0;;
22675;SDS011;12521;43.310;21.876;2023-06-19T22:54:22;14.0;;;11.0;;
22675;SDS011;12521;43.310;21.876;2023-06-19T22:58:59;14.0;;;11.0;;
22675;SDS011;12521;43.310;21.876;2023-06-19T23:03:38;14.0;;;11.0;;
22675;SDS011;12521;43.310;21.876;2023-06-19T23:08:16;14.0;;;11.0;;
22675;SDS011;12521;43.310;21.876;2023-06-19T23:12:53;14.0;;;11.0;;
22675;SDS011;12521;43.310;21.876;2023-06-19T23:17:30;14.0;;;11.0;;
22675;SDS011;12521;43.310;21.876;2023-06-19T23:22:06;14.0;;;11.0;;
22675;SDS011;12521;43.310;21.876;2023-06-19T23:26:44;13.0;;;11.0;;
22675;SDS011;12521;43.310;21.876;2023-06-19T23:31:21;13.0;;;11.0;;
22675;SDS011;12521;43.310;21.876;2023-06-19T23:35:58;12.0;;;10.0;;
22675;SDS011;12521;43.310;21.876;2023-06-19T23:40:34;12.0;;;10.0;;
22675;SDS011;12521;43.310;21.876;2023-06-19T23:45:11;12.0;;;10.0;;
22675;SDS011;12521;43.310;21.876;2023-06-19T23:49:47;12.0;;;10.0;;
22675;SDS011;12521;43.310;21.876;2023-06-19T23:54:24;12.0;;;10.0;;
22675;SDS011;12521;43.310;21.876;2023-06-19T23:59:00;12.0;;;10.0;;
